sensor_id;sensor_type;location;lat;lon;timestamp;P1;durP1;ratioP1;P2;durP2;ratioP2
39022;SDS011;25908;51.984;5.928;2022-09-09T00:00:19;4.60;;;2.00;;
39022;SDS011;25908;51.984;5.928;2022-09-09T00:02:54;4.47;;;1.98;;
39022;SDS011;25908;51.984;5.928;2022-09-09T00:08:21;4.93;;;2.40;;
39022;SDS011;25908;51.984;5.928;2022-09-09T00:10:54;4.25;;;2.20;;
39022;SDS011;25908;51.984;5.928;2022-09-09T00:13:27;4.97;;;2.40;;
39022;SDS011;25908;51.984;5.928;2022-09-09T00:16:17;3.20;;;2.00;;
39022;SDS011;25908;51.984;5.928;2022-09-09T00:21:27;5.80;;;3.00;;
39022;SDS011;25908;51.984;5.928;2022-09-09T00:24:00;5.63;;;2.80;;
39022;SDS011;25908;51.984;5.928;2022-09-09T00:26:37;4.82;;;2.67;;
39022;SDS011;25908;51.984;5.928;2022-09-09T00:31:33;4.45;;;2.90;;
39022;SDS011;25908;51.984;5.928;2022-09-09T00:34:12;3.72;;;2.75;;
39022;SDS011;25908;51.984;5.928;2022-09-09T00:36:43;5.03;;;2.85;;
39022;SDS011;25908;51.984;5.928;2022-09-09T00:39:45;5.45;;;2.95;;
39022;SDS011;25908;51.984;5.928;2022-09-09T00:44:37;4.53;;;2.88;;
39022;SDS011;25908;51.984;5.928;2022-09-09T00:49:40;4.88;;;3.03;;
39022;SDS011;25908;51.984;5.928;2022-09-09T00:52:32;4.53;;;2.85;;
39022;SDS011;25908;51.984;5.928;2022-09-09T00:58:09;6.07;;;3.15;;
39022;SDS011;25908;51.984;5.928;2022-09-09T01:00:39;5.75;;;2.88;;
39022;SDS011;25908;51.984;5.928;2022-09-09T01:11:57;5.03;;;2.33;;
39022;SDS011;25908;51.984;5.928;2022-09-09T01:17:03;5.32;;;2.13;;
39022;SDS011;25908;51.984;5.928;2022-09-09T01:25:56;3.67;;;2.35;;
39022;SDS011;25908;51.984;5.928;2022-09-09T01:28:33;4.00;;;2.05;;
39022;SDS011;25908;51.984;5.928;2022-09-09T01:31:02;5.22;;;1.92;;
39022;SDS011;25908;51.984;5.928;2022-09-09T01:33:31;4.32;;;2.00;;
39022;SDS011;25908;51.984;5.928;2022-09-09T01:38:25;4.15;;;2.00;;
39022;SDS011;25908;51.984;5.928;2022-09-09T01:40:53;4.22;;;1.98;;
39022;SDS011;25908;51.984;5.928;2022-09-09T01:43:22;3.38;;;1.70;;
39022;SDS011;25908;51.984;5.928;2022-09-09T01:48:21;3.33;;;1.63;;
39022;SDS011;25908;51.984;5.928;2022-09-09T01:50:48;3.53;;;1.65;;
39022;SDS011;25908;51.984;5.928;2022-09-09T01:53:14;3.38;;;1.60;;
39022;SDS011;25908;51.984;5.928;2022-09-09T01:55:46;3.75;;;1.60;;
39022;SDS011;25908;51.984;5.928;2022-09-09T02:03:57;2.53;;;1.48;;
39022;SDS011;25908;51.984;5.928;2022-09-09T02:06:39;2.97;;;1.80;;
39022;SDS011;25908;51.984;5.928;2022-09-09T02:09:06;5.28;;;1.30;;
39022;SDS011;25908;51.984;5.928;2022-09-09T02:11:36;4.63;;;1.50;;
39022;SDS011;25908;51.984;5.928;2022-09-09T02:14:10;3.03;;;1.40;;
39022;SDS011;25908;51.984;5.928;2022-09-09T02:16:40;2.55;;;1.40;;
39022;SDS011;25908;51.984;5.928;2022-09-09T02:19:11;3.05;;;1.58;;
39022;SDS011;25908;51.984;5.928;2022-09-09T02:21:39;3.33;;;1.70;;
39022;SDS011;25908;51.984;5.928;2022-09-09T02:24:07;3.78;;;1.55;;
39022;SDS011;25908;51.984;5.928;2022-09-09T02:26:35;3.30;;;1.27;;
39022;SDS011;25908;51.984;5.928;2022-09-09T02:29:17;3.45;;;1.60;;
39022;SDS011;25908;51.984;5.928;2022-09-09T02:31:46;3.15;;;1.85;;
39022;SDS011;25908;51.984;5.928;2022-09-09T02:34:14;2.95;;;1.50;;
39022;SDS011;25908;51.984;5.928;2022-09-09T02:36:44;3.40;;;1.90;;
39022;SDS011;25908;51.984;5.928;2022-09-09T02:39:11;4.60;;;1.90;;
39022;SDS011;25908;51.984;5.928;2022-09-09T02:41:39;3.90;;;2.00;;
39022;SDS011;25908;51.984;5.928;2022-09-09T02:44:13;3.10;;;1.80;;
39022;SDS011;25908;51.984;5.928;2022-09-09T02:52:42;4.18;;;2.00;;
39022;SDS011;25908;51.984;5.928;2022-09-09T02:55:12;4.82;;;2.40;;
39022;SDS011;25908;51.984;5.928;2022-09-09T02:57:53;5.10;;;2.00;;
39022;SDS011;25908;51.984;5.928;2022-09-09T03:00:25;2.78;;;1.75;;
39022;SDS011;25908;51.984;5.928;2022-09-09T03:02:53;4.07;;;2.20;;
39022;SDS011;25908;51.984;5.928;2022-09-09T03:05:19;4.40;;;2.20;;
39022;SDS011;25908;51.984;5.928;2022-09-09T03:07:46;4.78;;;2.13;;
39022;SDS011;25908;51.984;5.928;2022-09-09T03:10:12;5.35;;;2.40;;
39022;SDS011;25908;51.984;5.928;2022-09-09T03:12:38;4.15;;;2.40;;
39022;SDS011;25908;51.984;5.928;2022-09-09T03:15:04;3.83;;;1.90;;
39022;SDS011;25908;51.984;5.928;2022-09-09T03:17:30;5.35;;;2.53;;
39022;SDS011;25908;51.984;5.928;2022-09-09T03:19:56;6.78;;;2.47;;
39022;SDS011;25908;51.984;5.928;2022-09-09T03:22:23;4.75;;;2.45;;
39022;SDS011;25908;51.984;5.928;2022-09-09T03:24:50;7.13;;;2.40;;
39022;SDS011;25908;51.984;5.928;2022-09-09T03:27:16;6.03;;;2.70;;
39022;SDS011;25908;51.984;5.928;2022-09-09T03:29:42;5.35;;;3.10;;
39022;SDS011;25908;51.984;5.928;2022-09-09T03:32:07;6.10;;;3.35;;
39022;SDS011;25908;51.984;5.928;2022-09-09T03:34:35;5.20;;;3.50;;
39022;SDS011;25908;51.984;5.928;2022-09-09T03:37:04;5.32;;;2.88;;
39022;SDS011;25908;51.984;5.928;2022-09-09T03:39:30;5.85;;;3.08;;
39022;SDS011;25908;51.984;5.928;2022-09-09T03:41:56;5.45;;;2.80;;
39022;SDS011;25908;51.984;5.928;2022-09-09T03:44:21;5.68;;;3.08;;
39022;SDS011;25908;51.984;5.928;2022-09-09T03:46:47;6.30;;;2.85;;
39022;SDS011;25908;51.984;5.928;2022-09-09T03:49:12;6.13;;;3.20;;
39022;SDS011;25908;51.984;5.928;2022-09-09T03:51:38;4.80;;;3.03;;
39022;SDS011;25908;51.984;5.928;2022-09-09T03:54:04;6.43;;;3.00;;
39022;SDS011;25908;51.984;5.928;2022-09-09T03:56:33;5.13;;;2.88;;
39022;SDS011;25908;51.984;5.928;2022-09-09T03:58:59;5.45;;;2.95;;
39022;SDS011;25908;51.984;5.928;2022-09-09T04:01:24;6.25;;;3.15;;
39022;SDS011;25908;51.984;5.928;2022-09-09T04:03:50;5.07;;;3.05;;
39022;SDS011;25908;51.984;5.928;2022-09-09T04:06:15;4.35;;;3.42;;
39022;SDS011;25908;51.984;5.928;2022-09-09T04:08:42;7.28;;;4.25;;
39022;SDS011;25908;51.984;5.928;2022-09-09T04:11:07;7.85;;;3.00;;
39022;SDS011;25908;51.984;5.928;2022-09-09T04:13:34;4.63;;;3.17;;
39022;SDS011;25908;51.984;5.928;2022-09-09T04:16:02;7.25;;;3.35;;
39022;SDS011;25908;51.984;5.928;2022-09-09T04:18:28;6.28;;;3.47;;
39022;SDS011;25908;51.984;5.928;2022-09-09T04:20:55;6.65;;;4.05;;
39022;SDS011;25908;51.984;5.928;2022-09-09T04:23:24;7.93;;;3.25;;
39022;SDS011;25908;51.984;5.928;2022-09-09T04:25:52;8.35;;;3.72;;
39022;SDS011;25908;51.984;5.928;2022-09-09T04:28:19;5.82;;;3.60;;
39022;SDS011;25908;51.984;5.928;2022-09-09T04:30:46;5.68;;;2.97;;
39022;SDS011;25908;51.984;5.928;2022-09-09T04:33:12;4.75;;;3.20;;
39022;SDS011;25908;51.984;5.928;2022-09-09T04:35:38;4.90;;;3.25;;
39022;SDS011;25908;51.984;5.928;2022-09-09T04:38:08;6.10;;;2.83;;
39022;SDS011;25908;51.984;5.928;2022-09-09T04:40:34;7.32;;;3.22;;
39022;SDS011;25908;51.984;5.928;2022-09-09T04:43:00;5.93;;;3.55;;
39022;SDS011;25908;51.984;5.928;2022-09-09T04:45:28;10.35;;;4.47;;
39022;SDS011;25908;51.984;5.928;2022-09-09T04:47:54;5.82;;;3.42;;
39022;SDS011;25908;51.984;5.928;2022-09-09T04:50:19;6.20;;;3.40;;
39022;SDS011;25908;51.984;5.928;2022-09-09T04:52:45;7.47;;;3.58;;
39022;SDS011;25908;51.984;5.928;2022-09-09T04:55:11;6.07;;;3.00;;
39022;SDS011;25908;51.984;5.928;2022-09-09T04:57:37;13.40;;;3.65;;
39022;SDS011;25908;51.984;5.928;2022-09-09T05:00:03;6.32;;;3.78;;
39022;SDS011;25908;51.984;5.928;2022-09-09T05:02:29;5.03;;;2.45;;
39022;SDS011;25908;51.984;5.928;2022-09-09T05:04:55;7.43;;;3.28;;
39022;SDS011;25908;51.984;5.928;2022-09-09T05:07:21;6.20;;;3.30;;
39022;SDS011;25908;51.984;5.928;2022-09-09T05:09:47;7.82;;;3.03;;
39022;SDS011;25908;51.984;5.928;2022-09-09T05:12:14;6.05;;;3.00;;
39022;SDS011;25908;51.984;5.928;2022-09-09T05:14:41;9.27;;;3.13;;
39022;SDS011;25908;51.984;5.928;2022-09-09T05:17:07;6.45;;;2.63;;
39022;SDS011;25908;51.984;5.928;2022-09-09T05:19:33;5.50;;;2.80;;
39022;SDS011;25908;51.984;5.928;2022-09-09T05:21:58;6.63;;;3.00;;
39022;SDS011;25908;51.984;5.928;2022-09-09T05:24:26;7.72;;;2.85;;
39022;SDS011;25908;51.984;5.928;2022-09-09T05:26:51;6.55;;;2.95;;
39022;SDS011;25908;51.984;5.928;2022-09-09T05:29:17;7.30;;;2.83;;
39022;SDS011;25908;51.984;5.928;2022-09-09T05:31:44;7.55;;;2.70;;
39022;SDS011;25908;51.984;5.928;2022-09-09T05:34:10;7.47;;;2.72;;
39022;SDS011;25908;51.984;5.928;2022-09-09T05:36:36;9.93;;;3.03;;
39022;SDS011;25908;51.984;5.928;2022-09-09T05:39:02;7.85;;;2.72;;
39022;SDS011;25908;51.984;5.928;2022-09-09T05:41:28;6.05;;;2.70;;
39022;SDS011;25908;51.984;5.928;2022-09-09T05:43:54;9.75;;;3.10;;
39022;SDS011;25908;51.984;5.928;2022-09-09T05:46:20;7.60;;;2.50;;
39022;SDS011;25908;51.984;5.928;2022-09-09T05:48:47;4.65;;;2.50;;
39022;SDS011;25908;51.984;5.928;2022-09-09T05:51:18;6.30;;;2.45;;
39022;SDS011;25908;51.984;5.928;2022-09-09T05:53:46;6.95;;;2.90;;
39022;SDS011;25908;51.984;5.928;2022-09-09T05:58:39;8.73;;;2.72;;
39022;SDS011;25908;51.984;5.928;2022-09-09T06:01:09;6.38;;;2.95;;
39022;SDS011;25908;51.984;5.928;2022-09-09T06:03:37;7.85;;;3.47;;
39022;SDS011;25908;51.984;5.928;2022-09-09T06:06:05;7.38;;;3.15;;
39022;SDS011;25908;51.984;5.928;2022-09-09T06:08:36;9.15;;;2.80;;
39022;SDS011;25908;51.984;5.928;2022-09-09T06:11:13;7.05;;;2.70;;
39022;SDS011;25908;51.984;5.928;2022-09-09T06:13:41;12.25;;;3.67;;
39022;SDS011;25908;51.984;5.928;2022-09-09T06:16:10;6.13;;;2.70;;
39022;SDS011;25908;51.984;5.928;2022-09-09T06:18:37;8.82;;;2.60;;
39022;SDS011;25908;51.984;5.928;2022-09-09T06:21:05;7.93;;;3.00;;
39022;SDS011;25908;51.984;5.928;2022-09-09T06:23:32;9.30;;;2.85;;
39022;SDS011;25908;51.984;5.928;2022-09-09T06:26:02;7.38;;;2.90;;
39022;SDS011;25908;51.984;5.928;2022-09-09T06:28:31;10.32;;;3.08;;
39022;SDS011;25908;51.984;5.928;2022-09-09T06:30:59;11.07;;;2.95;;
39022;SDS011;25908;51.984;5.928;2022-09-09T06:33:34;9.05;;;2.97;;
39022;SDS011;25908;51.984;5.928;2022-09-09T06:36:02;7.80;;;2.75;;
39022;SDS011;25908;51.984;5.928;2022-09-09T06:38:29;9.48;;;3.10;;
39022;SDS011;25908;51.984;5.928;2022-09-09T06:40:55;8.13;;;2.95;;
39022;SDS011;25908;51.984;5.928;2022-09-09T06:43:23;10.32;;;2.47;;
39022;SDS011;25908;51.984;5.928;2022-09-09T06:46:31;6.72;;;2.67;;
39022;SDS011;25908;51.984;5.928;2022-09-09T06:48:40;10.13;;;2.70;;
39022;SDS011;25908;51.984;5.928;2022-09-09T06:51:28;7.00;;;2.92;;
39022;SDS011;25908;51.984;5.928;2022-09-09T06:53:54;6.03;;;2.38;;
39022;SDS011;25908;51.984;5.928;2022-09-09T06:56:23;6.60;;;2.53;;
39022;SDS011;25908;51.984;5.928;2022-09-09T06:58:51;13.00;;;2.67;;
39022;SDS011;25908;51.984;5.928;2022-09-09T07:01:18;7.47;;;2.47;;
39022;SDS011;25908;51.984;5.928;2022-09-09T07:03:50;9.57;;;2.60;;
39022;SDS011;25908;51.984;5.928;2022-09-09T07:06:19;9.15;;;2.53;;
39022;SDS011;25908;51.984;5.928;2022-09-09T07:08:48;10.00;;;3.03;;
39022;SDS011;25908;51.984;5.928;2022-09-09T07:11:15;5.25;;;1.92;;
39022;SDS011;25908;51.984;5.928;2022-09-09T07:13:40;8.07;;;2.22;;
39022;SDS011;25908;51.984;5.928;2022-09-09T07:16:08;11.65;;;2.70;;
39022;SDS011;25908;51.984;5.928;2022-09-09T07:18:35;7.35;;;2.67;;
39022;SDS011;25908;51.984;5.928;2022-09-09T07:21:01;10.27;;;2.08;;
39022;SDS011;25908;51.984;5.928;2022-09-09T07:23:28;7.85;;;2.00;;
39022;SDS011;25908;51.984;5.928;2022-09-09T07:25:54;8.27;;;2.45;;
39022;SDS011;25908;51.984;5.928;2022-09-09T07:28:20;6.57;;;1.98;;
39022;SDS011;25908;51.984;5.928;2022-09-09T07:30:54;7.53;;;2.28;;
39022;SDS011;25908;51.984;5.928;2022-09-09T07:33:24;8.35;;;2.10;;
39022;SDS011;25908;51.984;5.928;2022-09-09T07:35:50;10.23;;;2.38;;
39022;SDS011;25908;51.984;5.928;2022-09-09T07:38:16;8.57;;;2.40;;
39022;SDS011;25908;51.984;5.928;2022-09-09T07:40:42;8.38;;;2.30;;
39022;SDS011;25908;51.984;5.928;2022-09-09T07:43:08;11.65;;;2.95;;
39022;SDS011;25908;51.984;5.928;2022-09-09T07:45:34;12.35;;;3.25;;
39022;SDS011;25908;51.984;5.928;2022-09-09T07:48:00;9.70;;;2.38;;
39022;SDS011;25908;51.984;5.928;2022-09-09T07:50:27;10.68;;;2.60;;
39022;SDS011;25908;51.984;5.928;2022-09-09T07:52:53;6.60;;;2.00;;
39022;SDS011;25908;51.984;5.928;2022-09-09T07:55:19;11.50;;;2.28;;
39022;SDS011;25908;51.984;5.928;2022-09-09T07:57:45;9.85;;;2.22;;
39022;SDS011;25908;51.984;5.928;2022-09-09T08:00:11;7.55;;;1.95;;
39022;SDS011;25908;51.984;5.928;2022-09-09T08:02:37;8.35;;;2.40;;
39022;SDS011;25908;51.984;5.928;2022-09-09T08:05:03;9.63;;;2.15;;
39022;SDS011;25908;51.984;5.928;2022-09-09T08:07:31;10.68;;;3.17;;
39022;SDS011;25908;51.984;5.928;2022-09-09T08:09:56;11.70;;;2.30;;
39022;SDS011;25908;51.984;5.928;2022-09-09T08:12:22;8.70;;;2.25;;
39022;SDS011;25908;51.984;5.928;2022-09-09T08:14:48;8.18;;;2.08;;
39022;SDS011;25908;51.984;5.928;2022-09-09T08:17:13;8.23;;;2.10;;
39022;SDS011;25908;51.984;5.928;2022-09-09T08:19:39;9.13;;;2.13;;
39022;SDS011;25908;51.984;5.928;2022-09-09T08:22:05;11.35;;;2.00;;
39022;SDS011;25908;51.984;5.928;2022-09-09T08:24:30;5.35;;;1.77;;
39022;SDS011;25908;51.984;5.928;2022-09-09T08:26:56;7.30;;;1.98;;
39022;SDS011;25908;51.984;5.928;2022-09-09T08:29:22;10.35;;;2.00;;
39022;SDS011;25908;51.984;5.928;2022-09-09T08:31:52;5.38;;;1.63;;
39022;SDS011;25908;51.984;5.928;2022-09-09T08:34:20;7.38;;;2.00;;
39022;SDS011;25908;51.984;5.928;2022-09-09T08:36:47;7.03;;;1.83;;
39022;SDS011;25908;51.984;5.928;2022-09-09T08:39:14;10.18;;;1.90;;
39022;SDS011;25908;51.984;5.928;2022-09-09T08:55:35;10.07;;;1.90;;
39022;SDS011;25908;51.984;5.928;2022-09-09T08:58:21;9.85;;;2.45;;
39022;SDS011;25908;51.984;5.928;2022-09-09T09:03:40;6.70;;;2.17;;
39022;SDS011;25908;51.984;5.928;2022-09-09T09:06:13;5.57;;;1.80;;
39022;SDS011;25908;51.984;5.928;2022-09-09T09:09:01;6.80;;;1.88;;
39022;SDS011;25908;51.984;5.928;2022-09-09T09:11:33;8.60;;;1.65;;
39022;SDS011;25908;51.984;5.928;2022-09-09T09:14:08;9.00;;;1.85;;
39022;SDS011;25908;51.984;5.928;2022-09-09T09:16:42;10.40;;;2.60;;
39022;SDS011;25908;51.984;5.928;2022-09-09T09:19:26;6.38;;;1.75;;
39022;SDS011;25908;51.984;5.928;2022-09-09T09:21:59;5.68;;;1.38;;
39022;SDS011;25908;51.984;5.928;2022-09-09T09:27:31;4.80;;;1.25;;
39022;SDS011;25908;51.984;5.928;2022-09-09T09:30:05;8.88;;;1.40;;
39022;SDS011;25908;51.984;5.928;2022-09-09T09:35:40;4.50;;;1.40;;
39022;SDS011;25908;51.984;5.928;2022-09-09T09:38:13;6.72;;;1.70;;
39022;SDS011;25908;51.984;5.928;2022-09-09T09:41:15;7.95;;;2.03;;
39022;SDS011;25908;51.984;5.928;2022-09-09T09:43:35;6.07;;;1.60;;
39022;SDS011;25908;51.984;5.928;2022-09-09T09:46:05;5.82;;;1.75;;
39022;SDS011;25908;51.984;5.928;2022-09-09T09:48:44;5.38;;;1.52;;
39022;SDS011;25908;51.984;5.928;2022-09-09T09:51:12;6.20;;;1.52;;
39022;SDS011;25908;51.984;5.928;2022-09-09T09:53:41;8.50;;;1.60;;
39022;SDS011;25908;51.984;5.928;2022-09-09T09:56:08;9.02;;;1.58;;
39022;SDS011;25908;51.984;5.928;2022-09-09T10:01:23;6.28;;;1.50;;
39022;SDS011;25908;51.984;5.928;2022-09-09T10:03:53;7.18;;;2.13;;
39022;SDS011;25908;51.984;5.928;2022-09-09T10:06:29;9.37;;;1.83;;
39022;SDS011;25908;51.984;5.928;2022-09-09T10:08:58;8.32;;;1.58;;
39022;SDS011;25908;51.984;5.928;2022-09-09T10:11:29;7.03;;;1.45;;
39022;SDS011;25908;51.984;5.928;2022-09-09T10:19:05;9.70;;;1.77;;
39022;SDS011;25908;51.984;5.928;2022-09-09T10:24:36;8.38;;;2.13;;
39022;SDS011;25908;51.984;5.928;2022-09-09T10:30:14;7.32;;;1.30;;
39022;SDS011;25908;51.984;5.928;2022-09-09T10:35:33;7.25;;;1.55;;
39022;SDS011;25908;51.984;5.928;2022-09-09T10:38:10;5.38;;;1.42;;
39022;SDS011;25908;51.984;5.928;2022-09-09T10:41:09;6.10;;;1.45;;
39022;SDS011;25908;51.984;5.928;2022-09-09T10:43:56;6.50;;;1.63;;
39022;SDS011;25908;51.984;5.928;2022-09-09T10:49:50;10.27;;;3.50;;
39022;SDS011;25908;51.984;5.928;2022-09-09T10:55:20;7.35;;;2.15;;
39022;SDS011;25908;51.984;5.928;2022-09-09T11:00:19;5.55;;;1.17;;
39022;SDS011;25908;51.984;5.928;2022-09-09T11:02:52;5.93;;;1.73;;
39022;SDS011;25908;51.984;5.928;2022-09-09T11:05:27;7.15;;;1.45;;
39022;SDS011;25908;51.984;5.928;2022-09-09T11:13:22;6.82;;;1.50;;
39022;SDS011;25908;51.984;5.928;2022-09-09T11:15:57;8.15;;;1.70;;
39022;SDS011;25908;51.984;5.928;2022-09-09T11:18:35;7.30;;;1.70;;
39022;SDS011;25908;51.984;5.928;2022-09-09T11:23:39;6.07;;;1.30;;
39022;SDS011;25908;51.984;5.928;2022-09-09T11:26:11;7.75;;;1.92;;
39022;SDS011;25908;51.984;5.928;2022-09-09T11:34:19;6.47;;;1.77;;
39022;SDS011;25908;51.984;5.928;2022-09-09T11:37:10;7.63;;;2.25;;
39022;SDS011;25908;51.984;5.928;2022-09-09T11:42:23;8.65;;;2.13;;
39022;SDS011;25908;51.984;5.928;2022-09-09T11:44:49;7.65;;;1.80;;
39022;SDS011;25908;51.984;5.928;2022-09-09T11:49:54;5.20;;;1.27;;
39022;SDS011;25908;51.984;5.928;2022-09-09T11:55:00;6.77;;;1.30;;
39022;SDS011;25908;51.984;5.928;2022-09-09T11:58:01;6.45;;;1.13;;
39022;SDS011;25908;51.984;5.928;2022-09-09T12:00:40;3.35;;;1.15;;
39022;SDS011;25908;51.984;5.928;2022-09-09T12:06:08;6.88;;;1.33;;
39022;SDS011;25908;51.984;5.928;2022-09-09T12:08:52;4.57;;;1.25;;
39022;SDS011;25908;51.984;5.928;2022-09-09T12:11:24;7.50;;;1.90;;
39022;SDS011;25908;51.984;5.928;2022-09-09T12:13:54;5.20;;;1.50;;
39022;SDS011;25908;51.984;5.928;2022-09-09T12:16:33;6.57;;;1.35;;
39022;SDS011;25908;51.984;5.928;2022-09-09T12:24:31;6.68;;;1.80;;
39022;SDS011;25908;51.984;5.928;2022-09-09T12:29:54;6.25;;;1.15;;
39022;SDS011;25908;51.984;5.928;2022-09-09T12:32:34;5.47;;;1.52;;
39022;SDS011;25908;51.984;5.928;2022-09-09T12:35:07;6.35;;;1.50;;
39022;SDS011;25908;51.984;5.928;2022-09-09T12:37:53;4.47;;;1.05;;
39022;SDS011;25908;51.984;5.928;2022-09-09T12:40:24;8.57;;;1.52;;
39022;SDS011;25908;51.984;5.928;2022-09-09T12:43:00;4.65;;;1.30;;
39022;SDS011;25908;51.984;5.928;2022-09-09T12:45:40;4.03;;;1.08;;
39022;SDS011;25908;51.984;5.928;2022-09-09T12:48:07;4.45;;;1.30;;
39022;SDS011;25908;51.984;5.928;2022-09-09T12:50:37;4.25;;;1.45;;
39022;SDS011;25908;51.984;5.928;2022-09-09T12:53:11;3.30;;;1.00;;
39022;SDS011;25908;51.984;5.928;2022-09-09T12:55:52;7.70;;;1.30;;
39022;SDS011;25908;51.984;5.928;2022-09-09T12:58:27;5.25;;;0.95;;
39022;SDS011;25908;51.984;5.928;2022-09-09T13:00:57;4.10;;;1.10;;
39022;SDS011;25908;51.984;5.928;2022-09-09T13:03:24;5.15;;;1.38;;
39022;SDS011;25908;51.984;5.928;2022-09-09T13:05:50;6.25;;;1.35;;
39022;SDS011;25908;51.984;5.928;2022-09-09T13:08:18;6.00;;;1.75;;
39022;SDS011;25908;51.984;5.928;2022-09-09T13:13:20;5.38;;;1.55;;
39022;SDS011;25908;51.984;5.928;2022-09-09T13:15:49;3.70;;;1.30;;
39022;SDS011;25908;51.984;5.928;2022-09-09T13:18:19;3.17;;;1.40;;
39022;SDS011;25908;51.984;5.928;2022-09-09T13:20:48;3.92;;;1.20;;
39022;SDS011;25908;51.984;5.928;2022-09-09T13:23:15;3.40;;;1.20;;
39022;SDS011;25908;51.984;5.928;2022-09-09T13:25:52;3.47;;;1.20;;
39022;SDS011;25908;51.984;5.928;2022-09-09T13:28:24;7.43;;;1.75;;
39022;SDS011;25908;51.984;5.928;2022-09-09T13:31:18;9.07;;;2.22;;
39022;SDS011;25908;51.984;5.928;2022-09-09T13:33:49;10.30;;;2.08;;
39022;SDS011;25908;51.984;5.928;2022-09-09T13:36:17;6.38;;;1.60;;
39022;SDS011;25908;51.984;5.928;2022-09-09T13:38:58;5.88;;;2.25;;
39022;SDS011;25908;51.984;5.928;2022-09-09T13:41:42;6.97;;;1.75;;
39022;SDS011;25908;51.984;5.928;2022-09-09T13:44:22;4.78;;;1.80;;
39022;SDS011;25908;51.984;5.928;2022-09-09T13:49:45;8.57;;;2.33;;
39022;SDS011;25908;51.984;5.928;2022-09-09T13:52:15;5.78;;;1.67;;
39022;SDS011;25908;51.984;5.928;2022-09-09T14:00:00;7.60;;;1.48;;
39022;SDS011;25908;51.984;5.928;2022-09-09T14:02:26;4.05;;;1.25;;
39022;SDS011;25908;51.984;5.928;2022-09-09T14:04:51;5.90;;;1.75;;
39022;SDS011;25908;51.984;5.928;2022-09-09T14:07:20;5.65;;;1.30;;
39022;SDS011;25908;51.984;5.928;2022-09-09T14:09:46;9.02;;;2.00;;
39022;SDS011;25908;51.984;5.928;2022-09-09T14:12:15;5.05;;;1.42;;
39022;SDS011;25908;51.984;5.928;2022-09-09T14:14:41;5.07;;;1.38;;
39022;SDS011;25908;51.984;5.928;2022-09-09T14:17:07;4.50;;;1.08;;
39022;SDS011;25908;51.984;5.928;2022-09-09T14:19:33;4.75;;;1.15;;
39022;SDS011;25908;51.984;5.928;2022-09-09T14:21:59;6.03;;;1.50;;
39022;SDS011;25908;51.984;5.928;2022-09-09T14:24:26;4.55;;;1.45;;
39022;SDS011;25908;51.984;5.928;2022-09-09T14:26:52;5.18;;;1.27;;
39022;SDS011;25908;51.984;5.928;2022-09-09T14:29:17;5.85;;;1.45;;
39022;SDS011;25908;51.984;5.928;2022-09-09T14:31:43;3.75;;;1.27;;
39022;SDS011;25908;51.984;5.928;2022-09-09T14:34:08;3.72;;;1.15;;
39022;SDS011;25908;51.984;5.928;2022-09-09T14:36:35;5.32;;;1.50;;
39022;SDS011;25908;51.984;5.928;2022-09-09T14:39:02;6.15;;;1.35;;
39022;SDS011;25908;51.984;5.928;2022-09-09T14:41:28;3.92;;;1.15;;
39022;SDS011;25908;51.984;5.928;2022-09-09T14:43:55;2.92;;;1.27;;
39022;SDS011;25908;51.984;5.928;2022-09-09T14:46:21;5.15;;;1.70;;
39022;SDS011;25908;51.984;5.928;2022-09-09T14:48:46;5.03;;;1.20;;
39022;SDS011;25908;51.984;5.928;2022-09-09T14:51:17;5.25;;;1.33;;
39022;SDS011;25908;51.984;5.928;2022-09-09T14:53:47;5.55;;;1.35;;
39022;SDS011;25908;51.984;5.928;2022-09-09T14:56:17;9.88;;;1.58;;
39022;SDS011;25908;51.984;5.928;2022-09-09T14:58:46;6.68;;;1.25;;
39022;SDS011;25908;51.984;5.928;2022-09-09T15:01:12;4.88;;;1.30;;
39022;SDS011;25908;51.984;5.928;2022-09-09T15:03:40;6.35;;;1.30;;
39022;SDS011;25908;51.984;5.928;2022-09-09T15:06:11;6.25;;;1.42;;
39022;SDS011;25908;51.984;5.928;2022-09-09T15:08:39;8.60;;;1.33;;
39022;SDS011;25908;51.984;5.928;2022-09-09T15:11:06;4.68;;;1.25;;
39022;SDS011;25908;51.984;5.928;2022-09-09T15:13:33;7.35;;;1.50;;
39022;SDS011;25908;51.984;5.928;2022-09-09T15:16:06;5.97;;;1.30;;
39022;SDS011;25908;51.984;5.928;2022-09-09T15:18:33;2.88;;;1.15;;
39022;SDS011;25908;51.984;5.928;2022-09-09T15:21:00;3.25;;;0.93;;
39022;SDS011;25908;51.984;5.928;2022-09-09T15:23:28;6.40;;;1.40;;
39022;SDS011;25908;51.984;5.928;2022-09-09T15:25:56;6.43;;;1.60;;
39022;SDS011;25908;51.984;5.928;2022-09-09T15:28:21;5.75;;;1.50;;
39022;SDS011;25908;51.984;5.928;2022-09-09T15:30:48;6.65;;;1.75;;
39022;SDS011;25908;51.984;5.928;2022-09-09T15:33:16;4.70;;;1.33;;
39022;SDS011;25908;51.984;5.928;2022-09-09T15:35:42;2.88;;;1.23;;
39022;SDS011;25908;51.984;5.928;2022-09-09T15:38:08;4.70;;;1.50;;
39022;SDS011;25908;51.984;5.928;2022-09-09T15:40:34;5.85;;;1.83;;
39022;SDS011;25908;51.984;5.928;2022-09-09T15:42:59;7.30;;;1.67;;
39022;SDS011;25908;51.984;5.928;2022-09-09T15:45:25;5.88;;;1.50;;
39022;SDS011;25908;51.984;5.928;2022-09-09T15:47:51;7.60;;;2.00;;
39022;SDS011;25908;51.984;5.928;2022-09-09T15:50:17;5.82;;;1.48;;
39022;SDS011;25908;51.984;5.928;2022-09-09T15:52:43;6.28;;;1.25;;
39022;SDS011;25908;51.984;5.928;2022-09-09T15:55:09;5.25;;;1.35;;
39022;SDS011;25908;51.984;5.928;2022-09-09T15:57:34;5.03;;;2.00;;
39022;SDS011;25908;51.984;5.928;2022-09-09T16:00:02;4.00;;;1.13;;
39022;SDS011;25908;51.984;5.928;2022-09-09T16:02:29;6.35;;;1.40;;
39022;SDS011;25908;51.984;5.928;2022-09-09T16:04:55;11.77;;;2.47;;
39022;SDS011;25908;51.984;5.928;2022-09-09T16:07:22;7.72;;;2.03;;
39022;SDS011;25908;51.984;5.928;2022-09-09T16:09:48;14.13;;;3.25;;
39022;SDS011;25908;51.984;5.928;2022-09-09T16:12:16;9.88;;;2.33;;
39022;SDS011;25908;51.984;5.928;2022-09-09T16:14:43;8.27;;;1.35;;
39022;SDS011;25908;51.984;5.928;2022-09-09T16:17:10;4.15;;;1.58;;
39022;SDS011;25908;51.984;5.928;2022-09-09T16:19:36;4.28;;;1.02;;
39022;SDS011;25908;51.984;5.928;2022-09-09T16:22:02;4.07;;;0.98;;
39022;SDS011;25908;51.984;5.928;2022-09-09T16:24:29;3.90;;;1.48;;
39022;SDS011;25908;51.984;5.928;2022-09-09T16:26:55;3.67;;;1.27;;
39022;SDS011;25908;51.984;5.928;2022-09-09T16:29:21;4.30;;;1.27;;
39022;SDS011;25908;51.984;5.928;2022-09-09T16:31:47;5.38;;;1.40;;
39022;SDS011;25908;51.984;5.928;2022-09-09T16:34:14;5.03;;;1.40;;
39022;SDS011;25908;51.984;5.928;2022-09-09T16:36:42;5.18;;;1.63;;
39022;SDS011;25908;51.984;5.928;2022-09-09T16:39:10;6.35;;;1.55;;
39022;SDS011;25908;51.984;5.928;2022-09-09T16:41:42;6.82;;;2.53;;
39022;SDS011;25908;51.984;5.928;2022-09-09T16:44:09;5.18;;;1.80;;
39022;SDS011;25908;51.984;5.928;2022-09-09T16:46:37;6.20;;;2.20;;
39022;SDS011;25908;51.984;5.928;2022-09-09T16:49:06;5.63;;;1.70;;
39022;SDS011;25908;51.984;5.928;2022-09-09T16:51:40;4.55;;;1.55;;
39022;SDS011;25908;51.984;5.928;2022-09-09T16:54:08;2.95;;;1.30;;
39022;SDS011;25908;51.984;5.928;2022-09-09T16:56:36;3.08;;;1.20;;
39022;SDS011;25908;51.984;5.928;2022-09-09T16:59:05;4.18;;;1.30;;
39022;SDS011;25908;51.984;5.928;2022-09-09T17:01:35;3.53;;;1.25;;
39022;SDS011;25908;51.984;5.928;2022-09-09T17:04:04;5.28;;;1.42;;
39022;SDS011;25908;51.984;5.928;2022-09-09T17:06:32;5.35;;;1.20;;
39022;SDS011;25908;51.984;5.928;2022-09-09T17:09:03;3.33;;;1.25;;
39022;SDS011;25908;51.984;5.928;2022-09-09T17:11:31;3.95;;;1.30;;
39022;SDS011;25908;51.984;5.928;2022-09-09T17:13:57;3.97;;;1.38;;
39022;SDS011;25908;51.984;5.928;2022-09-09T17:16:24;2.05;;;1.40;;
39022;SDS011;25908;51.984;5.928;2022-09-09T17:18:51;5.38;;;1.90;;
39022;SDS011;25908;51.984;5.928;2022-09-09T17:21:19;3.28;;;1.50;;
39022;SDS011;25908;51.984;5.928;2022-09-09T17:23:46;3.47;;;1.52;;